Time;durP1;ratioP1;P1;durP2;ratioP2;P2;SDS_P1;SDS_P2;PMS_P1;PMS_P2;Temp;Humidity;BMP_temperature;BMP_pressure;BME280_temperature;BME280_humidity;BME280_pressure;Samples;Min_cycle;Max_cycle;Signal;HPM_P1;HPM_P2
2023/10/22 00:00:07;;;;;;;0.68;0.40;;;;;;;21.32;62.70;98010.44;2074147;28;20132;-68
2023/10/22 00:01:10;;;;;;;1.23;0.60;;;;;;;21.32;62.79;98005.03;2077971;28;20049;-68
2023/10/22 00:02:13;;;;;;;1.08;0.35;;;;;;;21.31;62.75;98010.66;2074424;28;20416;-68
2023/10/22 00:03:14;;;;;;;7.75;0.75;;;;;;;21.32;63.00;98015.00;2075595;28;20119;-68
2023/10/22 00:04:16;;;;;;;;;;;;;;;21.22;63.37;98021.00;2073846;28;20064;-68
2023/10/22 00:05:17;;;;;;;3.45;0.60;;;;;;;21.25;63.18;98023.22;2077561;28;19929;-68
2023/10/22 00:06:20;;;;;;;2.90;0.80;;;;;;;21.27;63.24;98018.41;2076102;28;20493;-69
2023/10/22 00:07:21;;;;;;;1.30;0.50;;;;;;;21.28;63.12;98020.03;2078693;28;20057;-68
2023/10/22 00:08:23;;;;;;;0.57;0.40;;;;;;;21.31;63.23;98016.06;2077246;28;20128;-69
2023/10/22 00:09:24;;;;;;;3.17;0.77;;;;;;;21.32;63.01;98018.53;2078282;28;20049;-68
2023/10/22 00:10:26;;;;;;;1.48;0.50;;;;;;;21.32;63.14;98018.53;2076455;28;20055;-68
2023/10/22 00:11:27;;;;;;;1.67;0.90;;;;;;;21.32;62.79;98012.31;2076097;28;20049;-68
2023/10/22 00:12:29;;;;;;;3.33;0.65;;;;;;;21.31;62.95;98016.91;2073145;28;20480;-68
2023/10/22 00:13:30;;;;;;;1.33;0.70;;;;;;;21.31;62.96;98016.91;2081118;28;20045;-67
2023/10/22 00:14:32;;;;;;;2.30;0.45;;;;;;;21.33;62.89;98020.16;2074107;28;20041;-68
2023/10/22 00:15:33;;;;;;;2.65;0.88;;;;;;;21.32;62.85;98018.53;2076564;28;20049;-68
2023/10/22 00:16:35;;;;;;;0.98;0.43;;;;;;;21.32;62.81;98017.72;2074127;28;20125;-68
2023/10/22 00:17:36;;;;;;;2.03;0.70;;;;;;;21.33;62.71;98019.34;2076960;28;20045;-68
2023/10/22 00:18:38;;;;;;;2.30;0.50;;;;;;;21.33;63.01;98019.34;2081304;28;20051;-68
2023/10/22 00:19:38;;;;;;;1.23;0.60;;;;;;;21.34;62.91;98023.66;2075043;28;20411;-68
2023/10/22 00:20:41;;;;;;;1.52;0.60;;;;;;;21.32;62.90;98021.22;2077858;28;20049;-68
2023/10/22 00:21:43;;;;;;;5.00;1.08;;;;;;;21.32;62.49;98023.91;2074939;28;20511;-68
2023/10/22 00:22:45;;;;;;;1.00;0.40;;;;;;;21.33;62.55;98024.75;2076374;28;20526;-68
2023/10/22 00:23:46;;;;;;;3.72;1.08;;;;;;;21.32;62.81;98023.09;2077568;28;20057;-68
2023/10/22 00:24:48;;;;;;;2.20;0.50;;;;;;;21.31;62.96;98021.44;2078349;28;20100;-68
2023/10/22 00:25:49;;;;;;;2.05;0.73;;;;;;;21.33;62.50;98030.94;2076843;28;20053;-68
2023/10/22 00:26:51;;;;;;;1.00;0.35;;;;;;;21.33;62.35;98022.03;2075666;28;20053;-69
2023/10/22 00:27:51;;;;;;;1.80;0.63;;;;;;;21.33;62.50;98022.84;2075369;28;20060;-68
2023/10/22 00:28:52;;;;;;;0.70;0.40;;;;;;;21.33;62.65;98019.34;2080457;28;20037;-68
2023/10/22 00:29:54;;;;;;;2.25;0.70;;;;;;;21.32;62.76;98023.91;2078208;28;20051;-68
2023/10/22 00:30:55;;;;;;;1.63;0.40;;;;;;;21.34;62.66;98024.50;2075962;28;20041;-68
2023/10/22 00:31:56;;;;;;;1.65;0.50;;;;;;;21.33;62.60;98027.44;2080365;28;20053;-69
2023/10/22 00:32:57;;;;;;;;;;;;;;;21.23;63.17;98024.50;2076193;28;20088;-68
2023/10/22 00:33:58;;;;;;;;;;;;;;;21.15;63.15;98018.41;2080574;28;19947;-69
2023/10/22 00:35:00;;;;;;;1.88;0.80;;;;;;;21.18;63.25;98026.03;2077189;28;19929;-68
2023/10/22 00:36:01;;;;;;;1.75;1.02;;;;;;;21.23;62.67;98024.50;2077552;28;20037;-69
2023/10/22 00:37:04;;;;;;;3.67;0.55;;;;;;;21.26;62.88;98029.44;2081404;28;20133;-69
2023/10/22 00:38:05;;;;;;;2.80;0.65;;;;;;;21.29;62.97;98034.38;2077329;28;20052;-68
2023/10/22 00:39:06;;;;;;;0.63;0.40;;;;;;;21.29;62.81;98028.97;2077533;28;20151;-68
2023/10/22 00:40:09;;;;;;;0.77;0.40;;;;;;;21.30;62.71;98025.22;2080299;28;20049;-68
2023/10/22 00:41:10;;;;;;;0.68;0.40;;;;;;;21.30;62.59;98030.59;2079373;28;20041;-68
2023/10/22 00:42:12;;;;;;;1.95;0.43;;;;;;;21.29;62.60;98031.69;2076567;28;20069;-68
2023/10/22 00:43:13;;;;;;;0.82;0.50;;;;;;;21.31;62.66;98032.22;2078208;28;20064;-68
2023/10/22 00:44:15;;;;;;;0.82;0.40;;;;;;;21.31;62.72;98032.22;2076260;28;20581;-69
2023/10/22 00:45:15;;;;;;;0.60;0.32;;;;;;;21.32;62.92;98033.91;2078263;28;20053;-68
2023/10/22 00:46:20;;;;;;;6.10;0.85;;;;;;;21.31;62.65;98034.94;2079016;28;20525;-69
2023/10/22 00:47:21;;;;;;;3.45;0.95;;;;;;;21.31;62.41;98038.47;2080288;28;20053;-69
2023/10/22 00:48:23;;;;;;;1.40;0.50;;;;;;;21.31;62.46;98034.94;2078941;28;20045;-68
2023/10/22 00:49:23;;;;;;;5.25;0.52;;;;;;;21.31;62.40;98030.38;2079088;28;20049;-68
2023/10/22 00:50:25;;;;;;;0.57;0.40;;;;;;;21.30;62.30;98031.41;2078775;28;20692;-68
2023/10/22 00:51:27;;;;;;;0.82;0.40;;;;;;;21.29;62.71;98029.78;2077906;28;20045;-69
2023/10/22 00:52:32;;;;;;;2.55;0.80;;;;;;;21.30;62.49;98033.31;2079963;28;20049;-68
2023/10/22 00:53:33;;;;;;;2.25;0.73;;;;;;;21.30;62.79;98025.22;2078621;28;20041;-68
2023/10/22 00:54:34;;;;;;;2.28;0.60;;;;;;;21.30;62.68;98034.13;2079270;28;20107;-69
2023/10/22 00:55:39;;;;;;;2.92;0.60;;;;;;;21.31;62.80;98034.94;2080026;28;20632;-69
2023/10/22 00:56:41;;;;;;;3.60;0.95;;;;;;;21.30;62.97;98038.69;2077436;28;20043;-69
2023/10/22 00:57:43;;;;;;;0.35;0.30;;;;;;;21.33;62.68;98041.75;2078608;28;20837;-69
2023/10/22 00:58:44;;;;;;;2.03;0.30;;;;;;;21.33;62.98;98041.75;2079011;28;20041;-69
2023/10/22 00:59:46;;;;;;;1.23;0.73;;;;;;;21.33;62.66;98039.03;2078474;28;20049;-69
2023/10/22 01:00:47;;;;;;;1.52;0.50;;;;;;;21.34;62.43;98039.84;2077995;28;20049;-69
2023/10/22 01:01:50;;;;;;;0.85;0.50;;;;;;;21.35;62.53;98034.25;2075953;28;20064;-70
2023/10/22 01:02:51;;;;;;;3.38;0.60;;;;;;;21.33;62.57;98046.31;2073839;28;20072;-69
2023/10/22 01:03:53;;;;;;;2.60;0.80;;;;;;;21.33;62.51;98040.91;2078498;28;20045;-69
2023/10/22 01:04:54;;;;;;;1.02;0.60;;;;;;;21.32;62.89;98033.91;2076572;28;20076;-68
2023/10/22 01:05:56;;;;;;;2.70;0.60;;;;;;;21.34;62.83;98037.16;2076784;28;20811;-69
2023/10/22 01:06:57;;;;;;;2.35;0.63;;;;;;;21.33;62.72;98039.03;2076154;28;20049;-68
2023/10/22 01:08:00;;;;;;;1.75;0.50;;;;;;;21.33;62.57;98040.91;2080083;28;20060;-68
2023/10/22 01:09:03;;;;;;;3.47;0.98;;;;;;;21.31;63.00;98049.25;2078033;28;20061;-68
2023/10/22 01:10:05;;;;;;;1.55;0.43;;;;;;;21.32;62.73;98052.78;2075021;28;20041;-68
2023/10/22 01:11:07;;;;;;;1.63;0.50;;;;;;;21.30;62.86;98058.41;2077628;28;20112;-68
2023/10/22 01:12:09;;;;;;;1.52;0.50;;;;;;;21.31;62.60;98049.25;2075031;28;20060;-69
2023/10/22 01:13:11;;;;;;;1.95;0.65;;;;;;;21.31;62.62;98045.72;2078452;28;20056;-69
2023/10/22 01:14:12;;;;;;;1.55;0.57;;;;;;;21.28;62.49;98041.63;2077714;28;20081;-68
2023/10/22 01:15:14;;;;;;;2.33;0.52;;;;;;;21.30;62.72;98038.69;2077221;28;20052;-68
2023/10/22 01:16:15;;;;;;;1.77;0.93;;;;;;;21.30;62.60;98047.59;2076068;28;20408;-68
2023/10/22 01:17:16;;;;;;;2.40;0.47;;;;;;;21.30;62.71;98053.00;2079918;28;20045;-69
2023/10/22 01:18:18;;;;;;;1.35;0.47;;;;;;;21.31;62.59;98053.81;2079936;28;20053;-69
2023/10/22 01:19:18;;;;;;;1.33;0.57;;;;;;;21.29;62.64;98050.56;2080740;28;20520;-69
2023/10/22 01:20:20;;;;;;;4.97;0.80;;;;;;;21.29;62.46;98043.28;2078887;28;20052;-68
2023/10/22 01:21:23;;;;;;;1.55;0.43;;;;;;;21.29;62.52;98051.38;2079931;28;20044;-68
2023/10/22 01:22:24;;;;;;;0.50;0.40;;;;;;;21.30;62.30;98054.88;2076049;28;20053;-68
2023/10/22 01:23:27;;;;;;;1.55;0.50;;;;;;;21.30;62.42;98062.97;2077760;28;20041;-68
2023/10/22 01:24:32;;;;;;;0.32;0.30;;;;;;;21.31;62.20;98054.66;2078724;28;20057;-68
2023/10/22 01:25:35;;;;;;;1.83;0.82;;;;;;;21.29;62.27;98055.94;2076526;28;20045;-68
2023/10/22 01:26:40;;;;;;;2.40;0.43;;;;;;;21.30;62.36;98046.78;2070395;28;20045;-68
2023/10/22 01:27:42;;;;;;;1.67;0.50;;;;;;;21.29;62.34;98051.38;2074518;28;20145;-68
2023/10/22 01:28:43;;;;;;;0.75;0.43;;;;;;;21.28;62.43;98044.31;2078554;28;20507;-68
2023/10/22 01:29:45;;;;;;;4.30;0.70;;;;;;;21.27;62.41;98053.47;2076863;28;20103;-68
2023/10/22 01:30:46;;;;;;;1.67;0.30;;;;;;;21.28;62.39;98049.72;2079947;28;20052;-70
2023/10/22 01:31:48;;;;;;;1.52;0.40;;;;;;;21.30;62.29;98044.09;2078772;28;20047;-68
2023/10/22 01:32:49;;;;;;;1.67;0.38;;;;;;;21.28;62.03;98054.28;2077076;28;20574;-69
2023/10/22 01:33:52;;;;;;;0.85;0.20;;;;;;;21.29;62.35;98053.25;2077985;28;20111;-68
2023/10/22 01:34:53;;;;;;;4.82;1.45;;;;;;;21.26;62.29;98054.53;2077974;28;20085;-68
2023/10/22 01:35:55;;;;;;;0.98;0.55;;;;;;;21.28;62.08;98060.50;2077757;28;20536;-68
2023/10/22 01:36:55;;;;;;;1.00;0.38;;;;;;;21.30;62.24;98060.28;2078938;28;20052;-68
2023/10/22 01:37:57;;;;;;;1.40;0.60;;;;;;;21.28;62.22;98057.81;2078899;28;20075;-69
2023/10/22 01:39:00;;;;;;;2.70;0.73;;;;;;;21.30;62.26;98058.41;2080989;28;20065;-68
2023/10/22 01:40:03;;;;;;;2.05;0.57;;;;;;;21.28;61.96;98054.28;2075935;28;20040;-67
2023/10/22 01:41:05;;;;;;;1.02;0.35;;;;;;;21.29;62.00;98062.16;2076942;28;20061;-68
2023/10/22 01:42:07;;;;;;;2.38;0.98;;;;;;;21.29;62.37;98061.34;2075918;28;20063;-69
2023/10/22 01:43:08;;;;;;;2.13;0.52;;;;;;;21.27;62.05;98056.16;2076013;28;20049;-68
2023/10/22 01:44:10;;;;;;;3.13;0.40;;;;;;;21.27;62.20;98055.34;2077758;28;22980;-69
2023/10/22 01:45:11;;;;;;;1.60;0.93;;;;;;;21.27;62.14;98058.06;2074191;28;20090;-69
2023/10/22 01:46:13;;;;;;;1.45;0.52;;;;;;;21.27;62.25;98063.44;2076765;28;20060;-68
2023/10/22 01:47:14;;;;;;;1.17;0.50;;;;;;;21.27;62.14;98060.75;2078049;28;20059;-68
2023/10/22 01:48:15;;;;;;;1.33;0.50;;;;;;;21.26;61.87;98065.31;2078442;28;20131;-68
2023/10/22 01:49:17;;;;;;;1.42;0.68;;;;;;;21.26;62.31;98067.22;2079371;28;20049;-69
2023/10/22 01:50:18;;;;;;;0.35;0.20;;;;;;;21.28;62.20;98062.38;2079103;28;20056;-68
2023/10/22 01:51:20;;;;;;;3.58;0.75;;;;;;;21.25;62.41;98065.53;2075939;28;20084;-68
2023/10/22 01:52:21;;;;;;;9.60;0.70;;;;;;;21.23;62.57;98065.81;2078788;28;20583;-68
2023/10/22 01:53:23;;;;;;;1.80;0.45;;;;;;;21.25;62.39;98071.75;2078911;28;20091;-69
2023/10/22 01:54:25;;;;;;;2.90;0.63;;;;;;;21.24;62.62;98066.63;2079799;28;20079;-68
2023/10/22 01:55:27;;;;;;;2.20;0.35;;;;;;;21.23;62.61;98062.25;2076521;28;20041;-68
2023/10/22 01:56:27;;;;;;;2.13;0.50;;;;;;;21.19;62.55;98065.44;2075927;28;20053;-69
2023/10/22 01:57:29;;;;;;;;;;;;;;;21.12;63.03;98066.63;2079415;28;20072;-68
2023/10/22 01:58:30;;;;;;;2.30;0.60;;;;;;;21.17;62.75;98064.88;2080572;28;19979;-69
2023/10/22 01:59:32;;;;;;;0.52;0.40;;;;;;;21.17;62.50;98069.41;2078707;28;20045;-68
2023/10/22 02:00:32;;;;;;;1.08;0.38;;;;;;;21.22;62.72;98063.31;2078924;28;20069;-69
2023/10/22 02:01:34;;;;;;;3.70;0.70;;;;;;;21.20;62.37;98058.16;2075166;28;20069;-69
2023/10/22 02:02:35;;;;;;;1.90;1.05;;;;;;;21.22;62.41;98055.22;2076707;28;20057;-69
2023/10/22 02:03:37;;;;;;;3.20;0.63;;;;;;;21.19;62.54;98056.53;2079796;28;20102;-69
2023/10/22 02:04:38;;;;;;;0.60;0.60;;;;;;;21.19;62.47;98068.13;2076919;28;20049;-69
2023/10/22 02:05:40;;;;;;;3.92;0.77;;;;;;;21.22;62.20;98064.13;2077352;28;20137;-69
2023/10/22 02:06:41;;;;;;;3.97;0.73;;;;;;;21.24;62.22;98064.72;2078563;28;20049;-69
2023/10/22 02:07:43;;;;;;;1.20;0.50;;;;;;;21.24;61.94;98066.63;2077199;28;20672;-69
2023/10/22 02:08:46;;;;;;;1.65;0.77;;;;;;;21.26;61.99;98067.22;2076656;28;20064;-69
2023/10/22 02:09:49;;;;;;;5.55;0.55;;;;;;;21.25;62.43;98066.38;2080159;28;20064;-69
2023/10/22 02:10:50;;;;;;;5.50;0.43;;;;;;;21.26;62.08;98072.59;2077023;28;20049;-69
2023/10/22 02:11:52;;;;;;;1.80;0.68;;;;;;;21.25;62.22;98070.94;2076144;28;20229;-69
2023/10/22 02:12:53;;;;;;;1.75;0.40;;;;;;;21.26;62.28;98070.72;2077023;28;20049;-69
2023/10/22 02:13:55;;;;;;;2.00;1.13;;;;;;;21.26;61.86;98067.22;2080720;28;20549;-69
2023/10/22 02:14:56;;;;;;;3.05;0.40;;;;;;;21.25;62.09;98070.94;2079857;28;20065;-69
2023/10/22 02:15:57;;;;;;;2.15;0.40;;;;;;;21.24;62.06;98072.00;2080290;28;20044;-69
2023/10/22 02:16:59;;;;;;;;;;;;;;;21.16;62.42;98078.56;2080752;28;20052;-69
2023/10/22 02:17:59;;;;;;;1.08;0.20;;;;;;;21.18;62.16;98077.28;2078055;28;19921;-69
2023/10/22 02:19:01;;;;;;;3.80;0.70;;;;;;;21.19;62.22;98078.91;2082589;28;20049;-66
2023/10/22 02:20:03;;;;;;;3.65;0.52;;;;;;;21.23;62.10;98070.34;2080721;28;20049;-68
2023/10/22 02:21:05;;;;;;;1.48;0.40;;;;;;;21.24;62.05;98070.13;2078855;28;20057;-69
2023/10/22 02:22:06;;;;;;;3.40;0.47;;;;;;;21.27;61.93;98071.53;2077410;28;20045;-69
2023/10/22 02:23:07;;;;;;;2.13;0.32;;;;;;;21.26;62.17;98072.59;2079310;28;20136;-68
2023/10/22 02:24:08;;;;;;;3.08;0.50;;;;;;;21.25;62.03;98073.63;2080624;28;20049;-69
2023/10/22 02:25:12;;;;;;;4.40;0.30;;;;;;;21.25;62.18;98070.94;2076371;28;20148;-69
2023/10/22 02:26:12;;;;;;;1.90;1.00;;;;;;;21.21;62.26;98073.28;2080634;28;20055;-69
2023/10/22 02:27:14;;;;;;;1.40;0.70;;;;;;;21.20;62.05;98080.56;2081397;28;20071;-69
2023/10/22 02:28:15;;;;;;;1.48;0.38;;;;;;;21.23;62.16;98075.75;2077636;28;20048;-69
2023/10/22 02:29:17;;;;;;;1.33;0.70;;;;;;;21.24;62.04;98077.41;2078587;28;20172;-69
2023/10/22 02:30:18;;;;;;;3.28;0.70;;;;;;;21.24;61.93;98075.53;2076923;28;20049;-69
2023/10/22 02:31:20;;;;;;;2.00;0.40;;;;;;;21.24;62.01;98080.09;2077417;28;20053;-69
2023/10/22 02:32:21;;;;;;;2.58;1.15;;;;;;;21.24;62.12;98082.81;2078234;28;20060;-69
2023/10/22 02:33:22;;;;;;;;;;;;;;;21.15;62.01;98085.03;2080373;28;20522;-69
2023/10/22 02:34:23;;;;;;;2.55;0.93;;;;;;;21.15;62.08;98083.16;2081808;28;20391;-69
2023/10/22 02:35:25;;;;;;;3.35;0.77;;;;;;;21.18;62.02;98081.84;2075475;28;20045;-69
2023/10/22 02:36:26;;;;;;;3.53;1.05;;;;;;;21.20;62.00;98091.34;2076912;28;20434;-69
2023/10/22 02:37:26;;;;;;;2.33;0.80;;;;;;;21.22;62.02;98085.72;2077907;28;20148;-69
2023/10/22 02:38:28;;;;;;;2.60;0.40;;;;;;;21.20;61.94;98082.41;2077849;28;20056;-70
2023/10/22 02:39:30;;;;;;;1.95;0.45;;;;;;;21.22;61.80;98090.28;2078867;28;20049;-69
2023/10/22 02:40:36;;;;;;;3.25;0.65;;;;;;;21.22;62.04;98098.38;2082105;28;20045;-68
2023/10/22 02:41:37;;;;;;;3.63;0.77;;;;;;;21.20;61.90;98093.22;2076773;28;20053;-69
2023/10/22 02:42:38;;;;;;;3.22;1.30;;;;;;;21.22;62.20;98087.59;2079154;28;20558;-68
2023/10/22 02:43:40;;;;;;;2.20;0.68;;;;;;;21.20;61.95;98085.97;2080253;28;20144;-68
2023/10/22 02:44:40;;;;;;;3.00;0.70;;;;;;;21.22;62.26;98095.69;2078695;28;20056;-68
2023/10/22 02:45:49;;;;;;;1.05;0.60;;;;;;;21.21;61.68;98086.78;2077891;28;20135;-68
2023/10/22 02:46:50;;;;;;;1.10;0.47;;;;;;;21.20;61.77;98096.75;2077411;28;20053;-69
2023/10/22 02:47:52;;;;;;;7.22;0.38;;;;;;;21.22;62.10;98098.38;2078394;28;20490;-69
2023/10/22 02:48:53;;;;;;;1.83;0.57;;;;;;;21.22;61.62;98095.69;2078890;28;20050;-69
2023/10/22 02:49:55;;;;;;;3.75;0.55;;;;;;;21.22;61.68;98101.09;2078745;28;20065;-68
2023/10/22 02:50:56;;;;;;;4.05;1.13;;;;;;;21.24;61.90;98098.97;2076412;28;20056;-68
2023/10/22 02:51:58;;;;;;;3.45;0.60;;;;;;;21.23;62.00;98105.41;2080130;28;20616;-69
2023/10/22 02:52:58;;;;;;;4.63;0.80;;;;;;;21.23;61.78;98105.41;2081510;28;20056;-68
2023/10/22 02:54:00;;;;;;;2.53;0.50;;;;;;;21.23;61.80;98105.41;2079469;28;20097;-69
2023/10/22 02:55:01;;;;;;;6.20;0.80;;;;;;;21.22;61.66;98101.91;2077771;28;20049;-68
2023/10/22 02:56:04;;;;;;;1.33;0.60;;;;;;;21.24;61.51;98109.78;2075792;28;20073;-68
2023/10/22 02:57:06;;;;;;;5.38;0.57;;;;;;;21.20;61.54;98099.44;2079199;28;20396;-68
2023/10/22 02:58:07;;;;;;;0.82;0.45;;;;;;;21.23;61.52;98105.41;2075160;28;20727;-69
2023/10/22 02:59:09;;;;;;;2.05;0.57;;;;;;;21.22;61.56;98103.78;2078031;28;20143;-69
2023/10/22 03:00:11;;;;;;;2.40;0.52;;;;;;;21.20;61.64;98110.25;2075933;28;20507;-68
2023/10/22 03:01:12;;;;;;;3.92;0.50;;;;;;;21.20;61.69;98104.84;2076694;28;20142;-68
2023/10/22 03:02:13;;;;;;;1.85;0.50;;;;;;;21.21;61.77;98111.06;2076286;28;20522;-68
2023/10/22 03:03:14;;;;;;;3.22;0.70;;;;;;;21.21;61.89;98108.34;2077399;28;20050;-68
2023/10/22 03:04:16;;;;;;;3.97;0.35;;;;;;;21.20;61.45;98112.94;2078064;28;20063;-68
2023/10/22 03:05:17;;;;;;;0.40;0.32;;;;;;;21.22;61.64;98103.78;2075603;28;20056;-68
2023/10/22 03:06:19;;;;;;;0.82;0.50;;;;;;;21.22;61.54;98114.56;2076521;28;20542;-68
2023/10/22 03:07:20;;;;;;;3.35;0.40;;;;;;;21.22;61.52;98109.16;2079111;28;20064;-68
2023/10/22 03:08:22;;;;;;;2.95;0.50;;;;;;;21.21;61.47;98111.06;2074979;28;20059;-68
2023/10/22 03:09:22;;;;;;;3.25;0.98;;;;;;;21.20;61.71;98107.53;2076530;28;20045;-68
2023/10/22 03:10:24;;;;;;;0.95;0.45;;;;;;;21.22;61.60;98109.16;2077962;28;20069;-69
2023/10/22 03:11:27;;;;;;;2.03;0.80;;;;;;;21.22;61.69;98109.16;2076095;28;20052;-68
2023/10/22 03:12:28;;;;;;;1.55;0.38;;;;;;;21.20;61.73;98112.09;2076898;28;20400;-68
2023/10/22 03:13:29;;;;;;;1.92;0.63;;;;;;;21.19;61.87;98111.28;2077360;28;20045;-68
2023/10/22 03:14:31;;;;;;;2.25;0.98;;;;;;;21.20;61.45;98118.34;2080641;28;20067;-68
2023/10/22 03:15:32;;;;;;;2.38;0.60;;;;;;;21.18;61.60;98112.34;2075232;28;20669;-68
2023/10/22 03:16:33;;;;;;;1.45;0.40;;;;;;;21.18;61.70;98115.03;2075714;28;20132;-68
2023/10/22 03:17:35;;;;;;;4.15;0.77;;;;;;;21.19;61.62;98121.25;2074357;28;20042;-68
2023/10/22 03:18:35;;;;;;;2.45;0.70;;;;;;;21.19;61.86;98113.97;2081306;28;20642;-68
2023/10/22 03:19:37;;;;;;;4.85;0.73;;;;;;;21.20;61.46;98114.78;2078873;28;20042;-69
2023/10/22 03:20:39;;;;;;;1.45;0.50;;;;;;;21.19;61.29;98113.97;2078690;28;20049;-68
2023/10/22 03:21:41;;;;;;;1.10;0.50;;;;;;;21.19;61.79;98116.66;2076812;28;20117;-68
2023/10/22 03:22:42;;;;;;;3.35;0.80;;;;;;;21.20;61.49;98117.47;2077747;28;20056;-69
2023/10/22 03:23:43;;;;;;;3.83;0.43;;;;;;;21.20;61.41;98115.63;2079447;28;20068;-69
2023/10/22 03:24:48;;;;;;;1.55;0.30;;;;;;;21.19;61.36;98111.28;2073031;28;20174;-69
2023/10/22 03:25:50;;;;;;;1.48;0.75;;;;;;;21.18;61.07;98112.34;2075232;28;20530;-68
2023/10/22 03:26:52;;;;;;;3.65;0.57;;;;;;;21.18;61.57;98120.44;2075064;28;20430;-68
2023/10/22 03:27:54;;;;;;;0.73;0.35;;;;;;;21.17;61.74;98123.34;2076826;28;20049;-68
2023/10/22 03:28:55;;;;;;;2.08;0.60;;;;;;;21.20;61.64;98128.28;2075790;28;20056;-68
2023/10/22 03:29:58;;;;;;;1.65;0.77;;;;;;;21.20;61.56;98123.72;2077435;28;20037;-69
2023/10/22 03:31:03;;;;;;;2.08;0.45;;;;;;;21.20;61.47;98126.41;2080436;28;22061;-68
2023/10/22 03:32:05;;;;;;;2.70;0.60;;;;;;;21.22;61.44;98122.66;2073015;28;20145;-69
2023/10/22 03:33:06;;;;;;;1.50;0.60;;;;;;;21.22;61.61;98133.44;2074228;28;20053;-69
2023/10/22 03:34:08;;;;;;;1.60;0.50;;;;;;;21.19;61.80;98127.44;2079148;28;20057;-69
2023/10/22 03:35:08;;;;;;;0.80;0.35;;;;;;;21.17;61.61;98126.88;2075868;28;21930;-68
2023/10/22 03:36:11;;;;;;;1.83;0.57;;;;;;;21.18;61.57;98123.13;2076754;28;20132;-68
2023/10/22 03:37:12;;;;;;;1.45;0.63;;;;;;;21.17;61.47;98129.59;2076644;28;20419;-69
2023/10/22 03:38:14;;;;;;;3.72;0.50;;;;;;;21.17;61.55;98126.03;2080364;28;20057;-68
2023/10/22 03:39:15;;;;;;;0.50;0.30;;;;;;;21.16;61.63;98124.41;2081603;28;20052;-69
2023/10/22 03:40:17;;;;;;;4.15;1.02;;;;;;;21.18;61.50;98131.22;2076494;28;20041;-68
2023/10/22 03:41:18;;;;;;;0.95;0.30;;;;;;;21.21;61.70;98129.94;2075982;28;20077;-69
2023/10/22 03:42:22;;;;;;;2.67;0.80;;;;;;;21.25;61.36;98132.97;2074986;28;20068;-69
2023/10/22 03:43:22;;;;;;;6.22;1.27;;;;;;;21.23;61.47;98135.94;2073086;28;20045;-69
2023/10/22 03:44:24;;;;;;;;;;;;;;;21.13;61.64;98138.34;2074019;28;20049;-69
2023/10/22 03:45:25;;;;;;;2.17;0.47;;;;;;;21.11;61.58;98135.06;2076891;28;19929;-69
2023/10/22 03:46:26;;;;;;;3.22;0.85;;;;;;;21.14;61.60;98140.00;2076109;28;20488;-69
2023/10/22 03:47:27;;;;;;;2.92;0.82;;;;;;;21.15;61.60;98142.47;2075111;28;20049;-69
2023/10/22 03:48:29;;;;;;;1.52;0.47;;;;;;;21.13;61.72;98139.19;2078213;28;20102;-69
2023/10/22 03:49:31;;;;;;;3.45;0.95;;;;;;;21.11;62.12;98149.38;2081829;28;20042;-69
2023/10/22 03:50:32;;;;;;;6.63;1.02;;;;;;;21.11;61.82;98143.97;2078547;28;20072;-69
2023/10/22 03:51:33;;;;;;;5.65;1.15;;;;;;;21.11;61.90;98145.84;2077236;28;20545;-69
2023/10/22 03:52:34;;;;;;;4.07;0.80;;;;;;;21.11;62.12;98140.47;2076125;28;20052;-70
2023/10/22 03:53:36;;;;;;;5.57;1.02;;;;;;;21.11;62.06;98143.97;2077211;28;20048;-69
2023/10/22 03:54:37;;;;;;;5.65;1.00;;;;;;;21.09;62.12;98138.00;2076070;28;20044;-69
2023/10/22 03:55:38;;;;;;;1.52;0.63;;;;;;;21.12;61.79;98134.03;2079536;28;20120;-69
2023/10/22 03:56:40;;;;;;;1.38;0.90;;;;;;;21.12;62.11;98144.81;2076458;28;20045;-68
2023/10/22 03:57:42;;;;;;;1.42;0.60;;;;;;;21.13;61.89;98138.34;2078341;28;20060;-69
2023/10/22 03:58:44;;;;;;;3.92;0.70;;;;;;;21.11;61.84;98141.28;2076097;28;20049;-69
2023/10/22 03:59:45;;;;;;;4.28;0.50;;;;;;;21.11;61.90;98135.88;2077379;28;20045;-68
2023/10/22 04:00:48;;;;;;;5.00;0.77;;;;;;;21.13;61.93;98138.34;2078574;28;20136;-68
2023/10/22 04:01:49;;;;;;;1.33;0.40;;;;;;;21.11;61.89;98141.28;2075739;28;20045;-69
2023/10/22 04:02:50;;;;;;;1.73;0.47;;;;;;;21.12;61.81;98142.94;2075326;28;20540;-69
2023/10/22 04:03:51;;;;;;;4.03;0.50;;;;;;;21.13;61.77;98149.97;2078122;28;20515;-69
2023/10/22 04:04:54;;;;;;;6.10;0.73;;;;;;;21.12;61.50;98142.13;2075569;28;20049;-69
2023/10/22 04:05:56;;;;;;;1.85;0.32;;;;;;;21.10;62.04;98142.34;2077485;28;20045;-69
2023/10/22 04:06:58;;;;;;;2.05;0.73;;;;;;;21.09;61.92;98146.09;2079576;28;20084;-68
2023/10/22 04:07:59;;;;;;;3.00;0.65;;;;;;;21.10;61.84;98141.53;2074038;28;20500;-69
2023/10/22 04:09:00;;;;;;;5.78;0.80;;;;;;;21.07;61.87;98144.69;2078657;28;20053;-69
2023/10/22 04:10:03;;;;;;;3.75;0.52;;;;;;;21.06;62.27;98143.88;2079066;28;20042;-69
2023/10/22 04:11:04;;;;;;;5.47;0.88;;;;;;;21.06;61.84;98143.88;2079041;28;20056;-69
2023/10/22 04:12:06;;;;;;;5.00;0.35;;;;;;;21.07;62.09;98145.50;2081072;28;20055;-69
2023/10/22 04:13:09;;;;;;;5.28;0.95;;;;;;;21.07;61.88;98145.50;2077375;28;20102;-69
2023/10/22 04:14:10;;;;;;;8.70;0.63;;;;;;;21.08;61.84;98149.00;2076522;28;20629;-69
2023/10/22 04:15:12;;;;;;;1.35;0.45;;;;;;;21.06;61.66;98143.88;2077447;28;20132;-69
2023/10/22 04:16:15;;;;;;;2.00;0.40;;;;;;;21.08;61.72;98149.81;2078618;28;20102;-69
2023/10/22 04:17:16;;;;;;;6.50;0.70;;;;;;;21.10;61.67;98152.31;2077520;28;21497;-69
2023/10/22 04:18:19;;;;;;;3.85;0.80;;;;;;;21.10;61.64;98147.72;2081184;28;20059;-69
2023/10/22 04:19:19;;;;;;;2.85;0.28;;;;;;;21.10;61.51;98147.72;2080616;28;20045;-69
2023/10/22 04:20:21;;;;;;;2.33;0.50;;;;;;;21.10;61.76;98150.44;2079935;28;20530;-69
2023/10/22 04:21:22;;;;;;;0.88;0.40;;;;;;;21.09;61.73;98159.59;2080567;28;20040;-69
2023/10/22 04:22:24;;;;;;;2.10;0.45;;;;;;;21.09;61.55;98154.19;2077047;28;20478;-69
2023/10/22 04:23:25;;;;;;;1.25;0.50;;;;;;;21.07;61.56;98153.59;2079935;28;20416;-68
2023/10/22 04:24:27;;;;;;;1.55;0.98;;;;;;;21.07;61.77;98155.47;2076286;28;20049;-68
2023/10/22 04:25:28;;;;;;;3.65;0.45;;;;;;;21.06;61.95;98160.06;2077058;28;20057;-69
2023/10/22 04:26:29;;;;;;;4.88;1.00;;;;;;;21.05;62.18;98157.56;2080866;28;20045;-69
2023/10/22 04:27:31;;;;;;;4.22;0.70;;;;;;;21.04;61.82;98162.16;2075347;28;20054;-68
2023/10/22 04:28:34;;;;;;;2.97;0.75;;;;;;;21.04;61.96;98159.44;2078916;28;20474;-68
2023/10/22 04:29:35;;;;;;;4.00;0.70;;;;;;;21.03;61.80;98165.06;2079442;28;20044;-69
2023/10/22 04:30:37;;;;;;;0.85;0.40;;;;;;;21.01;62.14;98162.59;2078169;28;20136;-69
2023/10/22 04:31:38;;;;;;;2.30;0.68;;;;;;;21.02;61.97;98166.94;2077300;28;20045;-68
2023/10/22 04:32:39;;;;;;;2.95;0.60;;;;;;;21.02;61.69;98166.94;2079316;28;20708;-68
2023/10/22 04:33:40;;;;;;;1.75;0.40;;;;;;;21.03;62.01;98168.56;2078856;28;20052;-68
2023/10/22 04:34:42;;;;;;;3.53;0.50;;;;;;;21.02;61.98;98169.63;2076780;28;20048;-68
2023/10/22 04:35:43;;;;;;;2.55;0.40;;;;;;;21.03;62.04;98171.25;2076270;28;20752;-68
2023/10/22 04:36:45;;;;;;;4.45;0.75;;;;;;;21.04;61.99;98166.72;2078898;28;20120;-69
2023/10/22 04:37:46;;;;;;;1.08;0.50;;;;;;;21.03;61.78;98170.44;2077346;28;20056;-68
2023/10/22 04:38:48;;;;;;;1.45;0.70;;;;;;;21.02;61.73;98175.03;2082236;28;20045;-69
2023/10/22 04:39:50;;;;;;;3.08;0.70;;;;;;;21.02;61.72;98175.03;2080298;28;20068;-69
2023/10/22 04:40:50;;;;;;;2.85;0.60;;;;;;;21.03;61.88;98176.66;2079702;28;20045;-68
2023/10/22 04:41:52;;;;;;;2.03;0.50;;;;;;;21.02;61.46;98166.94;2074932;28;20132;-68
2023/10/22 04:42:56;;;;;;;2.30;0.63;;;;;;;21.03;61.36;98176.66;2080473;28;20529;-69
2023/10/22 04:44:00;;;;;;;1.30;0.38;;;;;;;21.02;61.65;98175.03;2080316;28;20037;-69
2023/10/22 04:45:01;;;;;;;2.50;0.60;;;;;;;21.04;61.79;98169.41;2075195;28;20057;-67
2023/10/22 04:46:02;;;;;;;4.05;0.50;;;;;;;21.02;61.51;98175.03;2077257;28;20057;-68
2023/10/22 04:47:04;;;;;;;3.50;0.80;;;;;;;21.02;61.42;98175.03;2077099;28;20056;-68
2023/10/22 04:48:06;;;;;;;3.60;2.03;;;;;;;21.05;61.55;98173.75;2078501;28;20049;-68
2023/10/22 04:49:07;;;;;;;4.68;0.43;;;;;;;21.02;61.94;98172.34;2079988;28;20513;-69
2023/10/22 04:50:10;;;;;;;2.55;0.88;;;;;;;21.02;61.61;98175.03;2078273;28;20052;-69